Time;durP1;ratioP1;P1;durP2;ratioP2;P2;SDS_P1;SDS_P2;PMS_P1;PMS_P2;Temp;Humidity;BMP_temperature;BMP_pressure;BME280_temperature;BME280_humidity;BME280_pressure;Samples;Min_cycle;Max_cycle;Signal;HPM_P1;HPM_P2
2022/08/27 00:01:26;;;;;;;1999.90;999.90;;;17.30;99.40;;;;;;4200343;28;20172;-67
2022/08/27 00:03:26;;;;;;;1999.90;999.90;;;17.30;99.80;;;;;;4199719;28;20233;-68
2022/08/27 00:05:27;;;;;;;1999.90;999.90;;;17.30;99.90;;;;;;4200502;28;20208;-70
2022/08/27 00:07:28;;;;;;;1999.90;999.90;;;17.20;99.90;;;;;;4182715;28;20279;-67
2022/08/27 00:09:29;;;;;;;1999.90;988.63;;;17.20;99.90;;;;;;4200078;28;20191;-67
2022/08/27 00:11:30;;;;;;;1999.90;999.90;;;17.20;99.90;;;;;;4199977;28;20262;-67
2022/08/27 00:13:31;;;;;;;1999.90;999.90;;;17.20;99.90;;;;;;4198776;28;20211;-67
2022/08/27 00:15:32;;;;;;;1999.90;999.90;;;17.20;99.90;;;;;;4183117;28;20199;-67
2022/08/27 00:17:34;;;;;;;1999.90;999.90;;;17.20;99.90;;;;;;4200120;28;20251;-69
2022/08/27 00:19:35;;;;;;;1999.90;999.90;;;17.20;99.90;;;;;;4200069;28;20659;-68
2022/08/27 00:21:37;;;;;;;1999.90;999.90;;;17.20;99.90;;;;;;4181558;28;20180;-67
2022/08/27 00:23:39;;;;;;;1999.90;999.90;;;17.20;99.90;;;;;;4199065;28;20188;-67
2022/08/27 00:25:39;;;;;;;1999.90;891.50;;;17.20;99.90;;;;;;4182537;28;20204;-68
2022/08/27 00:27:40;;;;;;;1999.90;999.90;;;17.40;99.90;;;;;;4200191;28;20186;-68
2022/08/27 00:29:41;;;;;;;1999.90;990.30;;;17.40;99.90;;;;;;4182260;28;20268;-68
2022/08/27 00:31:42;;;;;;;1999.90;999.90;;;17.30;99.90;;;;;;4182168;28;20254;-68
2022/08/27 00:33:43;;;;;;;1999.90;999.90;;;17.30;99.90;;;;;;4198470;28;20298;-68
2022/08/27 00:35:43;;;;;;;1999.90;999.90;;;17.30;99.90;;;;;;4181643;28;20681;-69
2022/08/27 00:37:44;;;;;;;1999.90;943.90;;;17.30;99.90;;;;;;4199232;28;20215;-70
2022/08/27 00:39:45;;;;;;;1999.90;999.90;;;17.40;99.90;;;;;;4181764;28;20168;-68
2022/08/27 00:41:47;;;;;;;1999.90;999.90;;;17.50;99.90;;;;;;4181794;28;20272;-68
2022/08/27 00:43:58;;;;;;;1999.90;909.93;;;17.70;99.00;;;;;;4199400;28;20237;-68
2022/08/27 00:46:18;;;;;;;1999.90;999.90;;;17.70;99.30;;;;;;4182732;28;20183;-68
2022/08/27 00:48:23;;;;;;;1999.90;894.50;;;17.60;99.30;;;;;;4199364;28;20656;-68
2022/08/27 00:50:37;;;;;;;1999.90;875.17;;;17.60;99.50;;;;;;4180762;28;20185;-67
2022/08/27 00:53:02;;;;;;;1999.90;814.70;;;17.80;99.00;;;;;;4181301;28;20829;-67
2022/08/27 00:55:17;;;;;;;1999.90;999.90;;;17.70;98.80;;;;;;4181362;28;20239;-68
2022/08/27 00:57:18;;;;;;;1999.90;999.90;;;17.70;99.50;;;;;;4164774;28;20215;-67
2022/08/27 00:59:24;;;;;;;1999.90;999.90;;;17.70;99.50;;;;;;4181997;28;20169;-67
2022/08/27 01:01:29;;;;;;;1999.90;961.50;;;17.70;99.30;;;;;;4180992;28;20160;-68
2022/08/27 01:03:30;;;;;;;1999.90;988.13;;;17.60;99.20;;;;;;4198466;28;20191;-68
2022/08/27 01:05:32;;;;;;;1999.90;910.63;;;17.70;99.10;;;;;;4198722;28;20680;-67
2022/08/27 01:07:39;;;;;;;1999.90;999.90;;;17.80;99.50;;;;;;4199210;28;20183;-72
2022/08/27 01:09:42;;;;;;;1999.90;908.50;;;17.80;98.50;;;;;;4181386;28;20649;-68
2022/08/27 01:11:44;;;;;;;1999.90;914.00;;;17.80;99.10;;;;;;4164746;28;20673;-68
2022/08/27 01:13:45;;;;;;;1999.90;967.57;;;17.70;99.00;;;;;;4180511;28;20239;-68
2022/08/27 01:15:46;;;;;;;1999.90;954.60;;;17.60;99.60;;;;;;4181153;28;20587;-67
2022/08/27 01:17:47;;;;;;;1999.90;919.83;;;17.60;99.30;;;;;;4180161;28;20176;-69
2022/08/27 01:19:52;;;;;;;1999.90;863.30;;;17.60;99.40;;;;;;4199289;28;20656;-67
2022/08/27 01:22:23;;;;;;;1999.90;882.37;;;17.60;99.10;;;;;;4181253;28;20226;-68
2022/08/27 01:24:42;;;;;;;1999.90;988.73;;;17.60;99.80;;;;;;4198715;28;20215;-69
2022/08/27 01:26:43;;;;;;;1999.90;985.67;;;17.60;99.40;;;;;;4164545;28;20184;-68
2022/08/27 01:28:44;;;;;;;1999.90;999.90;;;17.40;99.90;;;;;;4181726;28;20819;-68
2022/08/27 01:30:45;;;;;;;1999.90;876.23;;;17.30;99.90;;;;;;4164147;28;20181;-67
2022/08/27 01:32:50;;;;;;;1999.90;851.33;;;17.20;99.90;;;;;;4164618;28;20185;-68
2022/08/27 01:34:51;;;;;;;1999.90;999.90;;;17.30;99.90;;;;;;4180978;28;20732;-68
2022/08/27 01:36:52;;;;;;;1999.90;999.90;;;17.20;99.90;;;;;;4182270;28;20696;-68
2022/08/27 01:38:53;;;;;;;1999.90;999.90;;;17.20;99.90;;;;;;4181237;28;20192;-68
2022/08/27 01:40:54;;;;;;;1999.90;937.23;;;17.30;99.90;;;;;;4163825;28;20196;-68
2022/08/27 01:42:57;;;;;;;1999.90;869.20;;;17.30;99.90;;;;;;4181610;28;20188;-68
2022/08/27 01:45:08;;;;;;;1999.90;901.20;;;17.40;99.90;;;;;;4182510;28;20220;-68
2022/08/27 01:47:08;;;;;;;1999.90;999.90;;;17.30;99.90;;;;;;4182098;28;20172;-68
2022/08/27 01:49:09;;;;;;;1999.90;859.13;;;17.20;99.90;;;;;;4180302;28;20201;-68
2022/08/27 01:51:10;;;;;;;1999.90;983.57;;;17.30;99.90;;;;;;4182356;28;20192;-68
2022/08/27 01:53:19;;;;;;;1999.90;999.90;;;17.30;99.90;;;;;;4181755;28;20180;-68
2022/08/27 01:55:24;;;;;;;1999.90;968.90;;;17.30;99.90;;;;;;4181210;28;20196;-68
2022/08/27 01:57:25;;;;;;;1999.90;999.90;;;17.20;99.90;;;;;;4181738;28;20184;-68
2022/08/27 01:59:26;;;;;;;1999.90;954.67;;;17.20;99.90;;;;;;4164683;28;20658;-68
2022/08/27 02:01:27;;;;;;;1999.90;996.37;;;17.30;99.90;;;;;;4163993;28;20187;-67
2022/08/27 02:03:28;;;;;;;1999.90;936.83;;;17.30;99.90;;;;;;4163758;28;20181;-67
2022/08/27 02:05:29;;;;;;;1999.90;999.90;;;17.30;99.90;;;;;;4182039;28;20598;-67
2022/08/27 02:07:30;;;;;;;1999.90;999.90;;;17.20;99.90;;;;;;4181684;28;20213;-68
2022/08/27 02:09:32;;;;;;;1999.90;988.83;;;17.30;99.90;;;;;;4182086;28;20584;-67
2022/08/27 02:11:32;;;;;;;1999.90;881.80;;;17.30;99.90;;;;;;4163940;28;20214;-68
2022/08/27 02:13:34;;;;;;;1999.90;624.97;;;17.30;99.90;;;;;;4180461;28;20236;-67
2022/08/27 02:15:36;;;;;;;1999.90;950.20;;;17.20;99.90;;;;;;4164481;28;20256;-67
2022/08/27 02:17:37;;;;;;;1999.90;999.90;;;17.30;99.90;;;;;;4163469;28;20181;-67
2022/08/27 02:19:38;;;;;;;1999.90;999.90;;;17.30;99.90;;;;;;4181516;28;20180;-67
2022/08/27 02:21:38;;;;;;;1999.90;999.90;;;17.30;99.90;;;;;;4164555;28;20291;-67
2022/08/27 02:23:40;;;;;;;1999.90;845.23;;;17.40;99.90;;;;;;4163559;28;20189;-67
2022/08/27 02:25:41;;;;;;;1999.90;964.33;;;17.40;99.90;;;;;;4181081;28;20204;-68
2022/08/27 02:27:43;;;;;;;1999.90;999.90;;;17.40;99.90;;;;;;4181374;28;20668;-72
2022/08/27 02:29:43;;;;;;;1999.90;875.23;;;17.40;99.90;;;;;;4181622;28;20192;-67
2022/08/27 02:31:44;;;;;;;1999.90;999.90;;;17.30;99.90;;;;;;4181410;28;20184;-67
2022/08/27 02:33:45;;;;;;;1999.90;859.67;;;17.40;99.90;;;;;;4180612;28;20250;-67
2022/08/27 02:35:52;;;;;;;1999.90;991.20;;;17.40;99.90;;;;;;4181488;28;20216;-67
2022/08/27 02:37:53;;;;;;;1999.90;932.97;;;17.40;99.90;;;;;;4194408;28;20187;-67
2022/08/27 02:39:54;;;;;;;1999.90;999.90;;;17.30;99.90;;;;;;4180208;28;20263;-67
2022/08/27 02:41:54;;;;;;;1999.90;855.13;;;17.30;99.90;;;;;;4197862;28;20176;-68
2022/08/27 02:43:55;;;;;;;1999.90;990.53;;;17.40;99.90;;;;;;4197520;28;20692;-68
2022/08/27 02:45:56;;;;;;;1999.90;999.90;;;17.40;99.90;;;;;;4197486;28;20203;-68
2022/08/27 02:47:57;;;;;;;1999.90;881.03;;;17.30;99.90;;;;;;4197246;28;20205;-67
2022/08/27 02:49:57;;;;;;;1999.90;999.90;;;17.30;99.90;;;;;;4198134;28;20608;-67
2022/08/27 02:51:58;;;;;;;1999.90;999.90;;;17.20;99.90;;;;;;4198283;28;20184;-67
2022/08/27 02:54:01;;;;;;;1999.90;816.87;;;17.20;99.90;;;;;;4197390;28;20270;-67
2022/08/27 02:56:03;;;;;;;1999.90;839.40;;;17.30;99.90;;;;;;4195428;28;20191;-67
2022/08/27 02:58:04;;;;;;;1999.90;999.90;;;17.30;99.90;;;;;;4197300;28;20737;-67
2022/08/27 03:00:10;;;;;;;1999.90;999.90;;;17.20;99.90;;;;;;4198314;28;20211;-68
2022/08/27 03:02:10;;;;;;;1999.90;999.90;;;17.20;99.90;;;;;;4180081;28;20965;-67
2022/08/27 03:04:11;;;;;;;1999.90;819.70;;;17.20;99.90;;;;;;4197136;28;20237;-67
2022/08/27 03:06:12;;;;;;;1999.90;999.90;;;17.10;99.90;;;;;;4197220;28;20278;-67
2022/08/27 03:08:13;;;;;;;1999.90;999.90;;;17.20;99.90;;;;;;4197388;28;20183;-68
2022/08/27 03:10:17;;;;;;;1999.90;970.40;;;17.20;99.90;;;;;;4179752;28;20275;-68
2022/08/27 03:12:18;;;;;;;1999.90;999.90;;;17.10;99.90;;;;;;4180897;28;20191;-68
2022/08/27 03:14:19;;;;;;;1999.90;926.60;;;17.10;99.90;;;;;;4200608;28;20215;-68
2022/08/27 03:16:20;;;;;;;1999.90;999.90;;;17.10;99.90;;;;;;4200753;28;20218;-68
2022/08/27 03:18:20;;;;;;;1999.90;999.90;;;17.00;99.90;;;;;;4201786;28;20195;-68
2022/08/27 03:20:22;;;;;;;1999.90;929.90;;;17.00;99.90;;;;;;4201660;28;20183;-68
2022/08/27 03:22:22;;;;;;;1999.90;999.90;;;17.00;99.90;;;;;;4200862;28;20195;-67
2022/08/27 03:24:23;;;;;;;1999.90;990.40;;;16.90;99.90;;;;;;4199938;28;20769;-69
2022/08/27 03:26:24;;;;;;;1999.90;975.27;;;17.00;99.90;;;;;;4201166;28;20210;-67
2022/08/27 03:28:32;;;;;;;1999.90;839.67;;;16.90;99.90;;;;;;4183472;28;20260;-68
2022/08/27 03:30:32;;;;;;;1999.90;940.77;;;16.90;99.90;;;;;;4183781;28;20192;-67
2022/08/27 03:32:35;;;;;;;1999.90;961.33;;;16.90;99.90;;;;;;4200973;28;20333;-68
2022/08/27 03:34:35;;;;;;;1999.90;999.90;;;17.00;99.90;;;;;;4182863;28;20716;-67
2022/08/27 03:36:36;;;;;;;1999.90;999.90;;;16.90;99.90;;;;;;4199971;28;20186;-68
2022/08/27 03:38:37;;;;;;;1999.90;999.90;;;16.90;99.90;;;;;;4200527;28;20176;-68
2022/08/27 03:40:38;;;;;;;1999.90;999.90;;;16.90;99.90;;;;;;4199751;28;20183;-69
2022/08/27 03:42:40;;;;;;;1999.90;999.90;;;16.90;99.90;;;;;;4183515;28;20661;-67
2022/08/27 03:44:41;;;;;;;1999.90;999.90;;;16.80;99.90;;;;;;4199861;28;20308;-67
2022/08/27 03:46:41;;;;;;;1999.90;999.90;;;16.90;99.90;;;;;;4200594;28;20187;-67
2022/08/27 03:48:42;;;;;;;1999.90;980.60;;;16.80;99.90;;;;;;4201162;28;20705;-67
2022/08/27 03:50:45;;;;;;;1999.90;998.77;;;16.80;99.90;;;;;;4200383;28;20191;-67
2022/08/27 03:52:46;;;;;;;1999.90;999.90;;;16.80;99.90;;;;;;4182111;28;20624;-67
2022/08/27 03:54:47;;;;;;;1999.90;900.60;;;16.80;99.90;;;;;;4182817;28;20216;-67
2022/08/27 03:56:48;;;;;;;1999.90;999.90;;;16.90;99.90;;;;;;4200203;28;20588;-67
2022/08/27 03:58:48;;;;;;;1999.90;999.90;;;16.80;99.90;;;;;;4183422;28;20180;-67
2022/08/27 04:00:49;;;;;;;1999.90;977.23;;;16.80;99.90;;;;;;4200707;28;20183;-67
2022/08/27 04:02:50;;;;;;;1999.90;999.90;;;16.80;99.90;;;;;;4199810;28;20179;-67
2022/08/27 04:04:51;;;;;;;1999.90;850.93;;;16.80;99.90;;;;;;4182729;28;20275;-67
2022/08/27 04:06:52;;;;;;;1999.90;999.90;;;16.80;99.90;;;;;;4199853;28;20196;-67
2022/08/27 04:08:52;;;;;;;1999.90;999.90;;;16.80;99.90;;;;;;4200659;28;20675;-68
2022/08/27 04:10:54;;;;;;;1999.90;999.90;;;16.80;99.90;;;;;;4200370;28;20191;-68
2022/08/27 04:12:54;;;;;;;1999.90;980.67;;;16.80;99.90;;;;;;4182189;28;20180;-67
2022/08/27 04:14:55;;;;;;;1999.90;999.90;;;16.80;99.90;;;;;;4181860;28;20665;-67
2022/08/27 04:16:56;;;;;;;1999.90;999.90;;;16.80;99.90;;;;;;4199928;28;20558;-68
2022/08/27 04:18:57;;;;;;;1999.90;999.90;;;16.80;99.90;;;;;;4200145;28;20186;-68
2022/08/27 04:21:10;;;;;;;1999.90;935.67;;;16.80;99.90;;;;;;4200188;28;20251;-68
2022/08/27 04:23:10;;;;;;;1999.90;999.90;;;16.80;99.90;;;;;;4181335;28;20165;-67
2022/08/27 04:25:11;;;;;;;1999.90;999.90;;;16.80;99.90;;;;;;4199805;28;20589;-69
2022/08/27 04:27:13;;;;;;;1999.90;999.90;;;16.80;99.90;;;;;;4182412;28;20188;-68
2022/08/27 04:29:15;;;;;;;1999.90;999.90;;;16.80;99.90;;;;;;4182264;28;20195;-68
2022/08/27 04:31:16;;;;;;;1999.90;993.10;;;16.90;99.90;;;;;;4199477;28;20184;-68
2022/08/27 04:33:16;;;;;;;1999.90;900.73;;;16.90;99.90;;;;;;4199259;28;20191;-69
2022/08/27 04:35:17;;;;;;;1999.90;999.90;;;17.00;99.90;;;;;;4199324;28;20191;-68
2022/08/27 04:37:18;;;;;;;1999.90;999.90;;;16.90;99.90;;;;;;4182622;28;20169;-68
2022/08/27 04:39:19;;;;;;;1999.90;999.90;;;16.90;99.90;;;;;;4199426;28;20180;-68
2022/08/27 04:41:25;;;;;;;1999.90;999.90;;;16.90;99.90;;;;;;4199895;28;20175;-68
2022/08/27 04:43:27;;;;;;;1999.90;999.90;;;17.00;99.90;;;;;;4199058;28;20262;-68
2022/08/27 04:45:27;;;;;;;1999.90;999.90;;;16.90;99.90;;;;;;4200281;28;20239;-68
2022/08/27 04:47:28;;;;;;;1999.90;999.90;;;16.90;99.90;;;;;;4194582;28;20195;-68
2022/08/27 04:49:29;;;;;;;1999.90;999.90;;;17.00;99.90;;;;;;4192240;28;20276;-68
2022/08/27 04:51:31;;;;;;;1999.90;951.63;;;16.90;99.90;;;;;;4182254;28;20263;-68
2022/08/27 04:53:31;;;;;;;1999.90;999.90;;;17.00;99.90;;;;;;4198532;28;20186;-68
2022/08/27 04:55:32;;;;;;;1999.90;999.90;;;17.00;99.90;;;;;;4182182;28;20196;-68
2022/08/27 04:57:33;;;;;;;1999.90;999.90;;;16.90;99.90;;;;;;4199561;28;20175;-68
2022/08/27 04:59:35;;;;;;;1999.90;999.90;;;16.80;99.90;;;;;;4200138;28;20186;-67
2022/08/27 05:01:38;;;;;;;1999.90;789.73;;;16.80;99.90;;;;;;4199919;28;20172;-68
2022/08/27 05:03:39;;;;;;;1999.90;497.97;;;16.80;99.90;;;;;;4198277;28;20178;-67
2022/08/27 05:05:41;;;;;;;1999.90;918.23;;;16.80;99.90;;;;;;4199021;28;20199;-68
2022/08/27 05:07:42;;;;;;;1999.90;937.17;;;16.80;99.90;;;;;;4180807;28;20204;-68
2022/08/27 05:09:42;;;;;;;1999.90;999.90;;;16.70;99.90;;;;;;4200215;28;20187;-68
2022/08/27 05:11:44;;;;;;;1999.90;999.90;;;16.70;99.90;;;;;;4199566;28;20175;-68
2022/08/27 05:13:46;;;;;;;1999.90;999.90;;;16.70;99.90;;;;;;4181053;28;20287;-68
2022/08/27 05:15:47;;;;;;;1999.90;933.27;;;16.80;99.90;;;;;;4199995;28;20202;-69
2022/08/27 05:17:47;;;;;;;1999.90;999.90;;;16.90;99.90;;;;;;4181492;28;20628;-68
2022/08/27 05:19:48;;;;;;;1999.90;969.20;;;16.90;99.90;;;;;;4199146;28;20179;-68
2022/08/27 05:21:52;;;;;;;1999.90;977.87;;;16.90;99.90;;;;;;4199231;28;20179;-68
2022/08/27 05:23:55;;;;;;;1999.90;913.60;;;17.00;99.90;;;;;;4199032;28;20188;-67
2022/08/27 05:25:56;;;;;;;1999.90;999.63;;;17.00;99.90;;;;;;4198738;28;20628;-67
2022/08/27 05:27:57;;;;;;;1999.90;873.23;;;16.90;99.90;;;;;;4199226;28;20183;-67
2022/08/27 05:29:57;;;;;;;1999.90;954.83;;;16.90;99.90;;;;;;4199380;28;20187;-67
2022/08/27 05:31:58;;;;;;;1999.90;999.90;;;16.80;99.90;;;;;;4198054;28;20242;-67
2022/08/27 05:34:00;;;;;;;1999.90;864.93;;;16.80;99.90;;;;;;4198386;28;20210;-67
2022/08/27 05:36:01;;;;;;;1999.90;822.93;;;16.80;99.90;;;;;;4181511;28;20246;-67
2022/08/27 05:38:02;;;;;;;1999.90;999.90;;;16.80;99.90;;;;;;4181356;28;20191;-67
2022/08/27 05:40:04;;;;;;;1999.90;914.20;;;16.80;99.90;;;;;;4198050;28;20503;-67
2022/08/27 05:42:06;;;;;;;1999.90;901.80;;;16.80;99.90;;;;;;4198049;28;20188;-67
2022/08/27 05:44:08;;;;;;;1999.90;997.03;;;16.90;99.90;;;;;;4198528;28;20201;-67
2022/08/27 05:46:13;;;;;;;1999.90;939.77;;;17.00;99.90;;;;;;4198060;28;20210;-67
2022/08/27 05:48:15;;;;;;;1999.90;924.83;;;17.00;99.90;;;;;;4196680;28;20589;-67
2022/08/27 05:50:16;;;;;;;1999.90;999.90;;;16.90;99.90;;;;;;4196164;28;20200;-67
2022/08/27 05:52:17;;;;;;;1999.90;963.83;;;17.00;99.90;;;;;;4196075;28;20190;-67
2022/08/27 05:54:18;;;;;;;1999.90;870.47;;;16.90;99.90;;;;;;4195316;28;20203;-67
2022/08/27 05:56:23;;;;;;;1999.90;999.90;;;16.80;99.90;;;;;;4196403;28;20180;-69
2022/08/27 06:03:02;;;;;;;1999.90;996.83;;;17.10;99.90;;;;;;4195405;28;20210;-67
2022/08/27 06:05:03;;;;;;;1999.90;999.90;;;17.10;99.90;;;;;;4196143;28;20204;-67
2022/08/27 06:07:08;;;;;;;1999.90;814.83;;;17.10;99.90;;;;;;4196010;28;20183;-67
2022/08/27 06:09:12;;;;;;;1999.90;851.27;;;17.10;99.90;;;;;;4178386;28;20557;-67
2022/08/27 06:11:13;;;;;;;1999.90;991.77;;;17.20;99.90;;;;;;4195032;28;20248;-67
2022/08/27 06:13:14;;;;;;;1999.90;976.93;;;17.00;99.90;;;;;;4195433;28;20585;-66
2022/08/27 06:15:15;;;;;;;1999.90;999.90;;;17.00;99.90;;;;;;4195768;28;20219;-67
2022/08/27 06:17:16;;;;;;;1999.90;999.90;;;17.00;99.90;;;;;;4196078;28;20258;-69
2022/08/27 06:19:17;;;;;;;1999.90;989.33;;;17.00;99.90;;;;;;4195954;28;20211;-67
2022/08/27 06:21:18;;;;;;;1999.90;821.57;;;17.00;99.90;;;;;;4194752;28;20179;-67
2022/08/27 06:23:19;;;;;;;1999.90;981.13;;;17.00;99.90;;;;;;4195416;28;20171;-66
2022/08/27 06:25:20;;;;;;;1999.90;798.43;;;17.10;99.90;;;;;;4195383;28;20230;-68
2022/08/27 06:27:20;;;;;;;1999.90;951.53;;;17.20;99.90;;;;;;4195810;28;20227;-68
2022/08/27 06:29:23;;;;;;;1999.90;914.80;;;17.20;99.90;;;;;;4195819;28;20187;-68
2022/08/27 06:31:26;;;;;;;1999.90;669.63;;;17.20;99.90;;;;;;4177909;28;20623;-69
2022/08/27 06:33:27;;;;;;;1999.90;750.07;;;17.20;99.90;;;;;;4194927;28;20644;-68
2022/08/27 06:35:27;;;;;;;1999.90;815.77;;;17.10;99.90;;;;;;4195663;28;20294;-68
2022/08/27 06:37:29;;;;;;;1999.90;976.13;;;17.20;99.90;;;;;;4195686;28;20616;-68
2022/08/27 06:39:31;;;;;;;1999.90;910.03;;;17.20;99.90;;;;;;4195928;28;20191;-68
2022/08/27 06:41:33;;;;;;;1999.90;971.10;;;17.20;99.90;;;;;;4195803;28;20176;-69
2022/08/27 06:43:36;;;;;;;1999.90;857.90;;;17.10;99.90;;;;;;4160899;28;20184;-68
2022/08/27 06:45:38;;;;;;;1999.90;892.33;;;17.10;99.90;;;;;;4178303;28;20208;-68
2022/08/27 06:47:39;;;;;;;1999.90;878.60;;;17.10;99.90;;;;;;4194963;28;20179;-68
2022/08/27 06:49:40;;;;;;;1999.90;938.33;;;17.20;99.90;;;;;;4195732;28;20172;-68
2022/08/27 06:51:46;;;;;;;1999.90;873.17;;;17.10;99.90;;;;;;4195514;28;20178;-68
2022/08/27 06:53:47;;;;;;;1999.90;999.90;;;17.30;99.90;;;;;;4194868;28;20268;-68
2022/08/27 06:55:48;;;;;;;1999.90;808.40;;;17.20;99.90;;;;;;4195425;28;20291;-69
2022/08/27 06:57:49;;;;;;;1999.90;954.23;;;17.10;99.90;;;;;;4177473;28;20178;-68
2022/08/27 06:59:50;;;;;;;1999.90;927.93;;;17.30;99.90;;;;;;4195749;28;20211;-68
2022/08/27 07:01:51;;;;;;;1999.90;656.83;;;17.40;99.90;;;;;;4177583;28;20658;-68
2022/08/27 07:03:55;;;;;;;1999.90;731.10;;;17.40;99.90;;;;;;4194809;28;20183;-68
2022/08/27 07:06:04;;;;;;;1999.90;865.77;;;17.30;99.90;;;;;;4177474;28;20287;-69
2022/08/27 07:08:07;;;;;;;1999.90;954.57;;;17.50;99.90;;;;;;4195513;28;20163;-68
2022/08/27 07:10:08;;;;;;;1999.90;859.60;;;17.50;99.90;;;;;;4161118;28;20200;-68
2022/08/27 07:12:09;;;;;;;1999.90;943.90;;;17.50;99.90;;;;;;4195622;28;20692;-68
2022/08/27 07:14:09;;;;;;;1999.90;948.00;;;17.70;99.90;;;;;;4194614;28;20207;-66
2022/08/27 07:16:15;;;;;;;1999.90;999.90;;;17.50;99.90;;;;;;4195599;28;20176;-66
2022/08/27 07:18:16;;;;;;;1999.90;787.33;;;17.60;99.90;;;;;;4195380;28;20679;-66
2022/08/27 07:20:19;;;;;;;1999.90;803.87;;;17.70;99.90;;;;;;4195366;28;20252;-66
2022/08/27 07:22:19;;;;;;;1999.90;944.40;;;17.50;99.90;;;;;;4195315;28;20171;-66
2022/08/27 07:24:20;;;;;;;1999.90;875.13;;;17.60;99.90;;;;;;4160308;28;20177;-66
2022/08/27 07:26:22;;;;;;;1999.90;997.67;;;17.70;99.90;;;;;;4177477;28;20188;-66
2022/08/27 07:28:23;;;;;;;1999.90;875.50;;;17.50;99.90;;;;;;4195549;28;20656;-67
2022/08/27 07:30:24;;;;;;;1999.90;885.50;;;17.60;99.90;;;;;;4195153;28;20183;-66
2022/08/27 07:32:24;;;;;;;1999.90;639.33;;;17.60;99.90;;;;;;4177436;28;20191;-66
2022/08/27 07:34:25;;;;;;;1999.90;734.37;;;17.70;99.90;;;;;;4176188;28;20212;-68
2022/08/27 07:36:26;;;;;;;1999.90;814.00;;;17.60;99.90;;;;;;4195413;28;20171;-66
2022/08/27 07:38:26;;;;;;;1999.90;733.80;;;17.50;99.90;;;;;;4177335;28;20181;-68
2022/08/27 07:40:27;;;;;;;1999.90;850.20;;;17.60;99.90;;;;;;4195089;28;20226;-66
2022/08/27 07:44:48;;;;;;;1999.90;999.90;;;17.90;99.90;;;;;;4195109;28;20225;-66
2022/08/27 07:46:49;;;;;;;1999.90;893.37;;;18.00;99.90;;;;;;4195022;28;20179;-68
2022/08/27 07:48:51;;;;;;;1999.90;999.90;;;18.10;99.90;;;;;;4194992;28;20183;-67
2022/08/27 07:50:54;;;;;;;1999.90;999.90;;;18.20;99.90;;;;;;4195138;28;20215;-68
2022/08/27 07:52:54;;;;;;;1999.90;999.90;;;18.30;99.90;;;;;;4176507;28;20600;-67
2022/08/27 07:54:55;;;;;;;1999.90;713.27;;;18.30;99.90;;;;;;4194827;28;20254;-67
2022/08/27 07:56:56;;;;;;;1999.90;822.63;;;18.40;99.90;;;;;;4194964;28;20187;-67
2022/08/27 07:58:58;;;;;;;1999.90;738.47;;;18.40;99.90;;;;;;4197053;28;20207;-68
2022/08/27 08:00:58;;;;;;;1999.90;926.80;;;18.50;99.90;;;;;;4196553;28;20176;-68
2022/08/27 08:03:00;;;;;;;1999.90;872.87;;;18.40;99.90;;;;;;4197480;28;20647;-67
2022/08/27 08:05:02;;;;;;;1999.90;999.90;;;18.10;99.90;;;;;;4196596;28;20282;-67
2022/08/27 08:07:03;;;;;;;1999.90;680.00;;;18.10;99.90;;;;;;4180046;28;20561;-67
2022/08/27 08:09:05;;;;;;;1999.90;577.00;;;18.00;99.90;;;;;;4196584;28;20184;-68
2022/08/27 08:11:14;;;;;;;1999.90;823.50;;;17.90;99.90;;;;;;4196609;28;20188;-68
2022/08/27 08:13:18;;;;;;;1999.90;775.10;;;18.00;99.90;;;;;;4195807;28;20233;-68
2022/08/27 08:15:19;;;;;;;1999.90;714.53;;;18.00;99.90;;;;;;4196261;28;20269;-68
2022/08/27 08:17:20;;;;;;;1999.90;861.77;;;17.90;99.90;;;;;;4197932;28;20184;-67
2022/08/27 08:19:20;;;;;;;1999.90;764.30;;;17.90;99.90;;;;;;4197369;28;20232;-68
2022/08/27 08:21:21;;;;;;;1999.90;890.63;;;17.90;99.90;;;;;;4179736;28;20188;-68
2022/08/27 08:23:22;;;;;;;1999.90;582.27;;;18.00;99.90;;;;;;4197347;28;20611;-68
2022/08/27 08:25:23;;;;;;;1999.90;693.67;;;18.10;99.90;;;;;;4197710;28;20218;-68
2022/08/27 08:27:24;;;;;;;1999.90;864.87;;;18.10;99.90;;;;;;4197834;28;20601;-67
2022/08/27 08:29:25;;;;;;;1999.90;796.90;;;18.10;99.90;;;;;;4179737;28;20231;-67
2022/08/27 08:31:26;;;;;;;1999.90;942.13;;;18.20;99.90;;;;;;4197627;28;20558;-68
2022/08/27 08:33:27;;;;;;;1999.90;920.63;;;18.40;99.90;;;;;;4196946;28;20319;-67
2022/08/27 08:35:28;;;;;;;1999.90;878.07;;;18.50;99.90;;;;;;4180029;28;20200;-67
2022/08/27 08:37:28;;;;;;;1999.90;936.53;;;18.40;99.90;;;;;;4197587;28;20172;-67
2022/08/27 08:39:29;;;;;;;1999.90;747.87;;;18.40;99.90;;;;;;4197519;28;20230;-67
2022/08/27 08:41:38;;;;;;;1999.90;827.23;;;18.20;99.90;;;;;;4197719;28;20183;-67
2022/08/27 08:43:50;;;;;;;1999.90;823.93;;;18.10;99.90;;;;;;4179260;28;20180;-68
2022/08/27 08:45:52;;;;;;;1999.90;916.83;;;18.20;99.90;;;;;;4197753;28;20191;-67
2022/08/27 08:48:19;;;;;;;1999.90;824.60;;;18.10;99.90;;;;;;4180046;28;20649;-67
2022/08/27 08:50:29;;;;;;;1999.90;864.27;;;18.20;99.90;;;;;;4180133;28;20264;-67
2022/08/27 08:52:58;;;;;;;1999.90;720.03;;;18.40;99.90;;;;;;4180707;28;20203;-68
2022/08/27 08:55:12;;;;;;;1999.90;771.47;;;18.60;99.90;;;;;;4198999;28;20203;-67
2022/08/27 08:57:26;;;;;;;1999.90;960.67;;;18.40;99.90;;;;;;4180425;28;20171;-68
2022/08/27 08:59:37;;;;;;;1999.90;913.43;;;18.30;99.90;;;;;;4173365;28;20318;-70
2022/08/27 09:01:44;;;;;;;1999.90;886.93;;;18.40;99.90;;;;;;4185570;28;20690;-69
2022/08/27 09:04:08;;;;;;;1999.90;853.13;;;18.70;99.90;;;;;;4191679;28;20191;-69
2022/08/27 09:06:53;;;;;;;1999.90;719.33;;;18.90;99.90;;;;;;4198152;28;20529;-70
2022/08/27 09:08:54;;;;;;;1999.90;999.90;;;19.10;99.90;;;;;;4173674;28;20668;-70
2022/08/27 09:11:14;;;;;;;1999.90;875.13;;;19.70;97.30;;;;;;4195684;28;20691;-69
2022/08/27 09:13:34;;;;;;;1999.90;456.07;;;19.80;97.50;;;;;;4195424;28;20184;-69
2022/08/27 09:15:36;;;;;;;1999.90;634.90;;;20.20;95.60;;;;;;4184027;28;20215;-69
2022/08/27 09:17:37;;;;;;;1999.90;639.97;;;20.70;93.30;;;;;;4189337;28;20567;-68
2022/08/27 09:19:38;;;;;;;1999.90;584.27;;;21.10;91.10;;;;;;4196245;28;20238;-69
2022/08/27 09:21:42;;;;;;;1999.90;753.53;;;21.40;91.40;;;;;;4195989;28;20179;-69
2022/08/27 09:24:02;;;;;;;1999.90;756.57;;;21.60;90.50;;;;;;4195330;28;20652;-70
2022/08/27 09:26:02;;;;;;;1999.90;778.60;;;21.70;89.80;;;;;;4194154;28;20274;-69
2022/08/27 09:30:42;;;;;;;1999.90;999.90;;;22.20;86.30;;;;;;4196654;28;20217;-68
2022/08/27 09:32:43;;;;;;;1999.90;629.07;;;22.20;86.20;;;;;;4196000;28;20728;-67
2022/08/27 09:34:44;;;;;;;1999.90;999.90;;;22.70;80.40;;;;;;4164875;28;20209;-70
2022/08/27 09:37:01;;;;;;;1999.90;999.90;;;23.10;74.30;;;;;;4195954;28;20176;-71
2022/08/27 09:39:05;;;;;;;1999.90;717.63;;;23.10;74.30;;;;;;4196145;28;20249;-69
2022/08/27 09:41:16;;;;;;;1999.90;428.53;;;22.40;76.40;;;;;;4187734;28;20180;-69
2022/08/27 09:43:27;;;;;;;1999.90;735.40;;;22.60;77.80;;;;;;4186056;28;20192;-68
2022/08/27 09:45:29;;;;;;;1999.90;501.77;;;23.40;70.30;;;;;;4185135;28;20254;-69
2022/08/27 09:47:47;;;;;;;1999.90;999.90;;;23.40;68.00;;;;;;4189752;28;20180;-69
2022/08/27 09:49:48;;;;;;;1999.90;835.30;;;23.10;71.30;;;;;;4198512;28;20253;-70
2022/08/27 09:51:49;;;;;;;1999.90;999.90;;;23.10;71.40;;;;;;4177109;28;20684;-72
2022/08/27 09:53:58;;;;;;;1999.90;999.90;;;23.20;69.00;;;;;;4183708;28;20680;-70
2022/08/27 09:56:03;;;;;;;1999.90;999.90;;;22.90;69.00;;;;;;4199202;28;20825;-67
2022/08/27 09:58:06;;;;;;;1999.90;819.13;;;23.40;66.40;;;;;;4182398;28;20180;-67
2022/08/27 10:00:15;;;;;;;1999.90;755.90;;;23.30;63.50;;;;;;4198722;28;20180;-67
2022/08/27 10:02:23;;;;;;;1999.90;999.90;;;22.80;68.10;;;;;;4198673;28;20257;-68
2022/08/27 10:04:35;;;;;;;1999.90;854.43;;;22.80;69.70;;;;;;4181310;28;20295;-69
2022/08/27 10:06:44;;;;;;;1999.90;999.90;;;23.50;64.90;;;;;;4194847;28;20206;-70
2022/08/27 10:08:51;;;;;;;1999.90;826.87;;;23.50;62.10;;;;;;4184558;28;20190;-70
2022/08/27 10:11:00;;;;;;;1999.90;999.90;;;23.40;63.50;;;;;;4175688;28;20263;-69